Bentonville (XNA/KXNA)

Map

Destinations

Information

Location
Bentonville, AR
Local Time
20:46 / 8:46 pm
GMT Time
01:46 / 1:46 am
Gates
A10
No FAA reported delays
METAR KXNA 270053Z 18004KT 10SM CLR 27/13 A3008 RMK AO2 SLP170 T02670133
TAF KXNA 262320Z 2700/2724 24007KT P6SM SKC FM270400 00000KT P6SM VCTS SCT050CB BKN150 FM270800 00000KT P6SM SCT250 FM271600 16007KT P6SM SCT250